Time;durP1;ratioP1;P1;durP2;ratioP2;P2;SDS_P1;SDS_P2;PMS_P1;PMS_P2;Temp;Humidity;BMP_temperature;BMP_pressure;BME280_temperature;BME280_humidity;BME280_pressure;Samples;Min_cycle;Max_cycle;Signal;HPM_P1;HPM_P2
2023/05/05 00:01:22;;;;;;;10.10;3.08;;;11.60;99.90;;;;;;5002816;28;20513;-74
2023/05/05 00:03:47;;;;;;;9.50;3.15;;;11.60;99.90;;;;;;5005027;28;20041;-76
2023/05/05 00:06:13;;;;;;;7.25;2.95;;;11.60;99.90;;;;;;5022913;28;20049;-72
2023/05/05 00:08:39;;;;;;;7.20;3.03;;;11.60;99.90;;;;;;5021185;28;20048;-74
2023/05/05 00:11:04;;;;;;;10.00;3.20;;;11.70;99.90;;;;;;5020127;28;20049;-74
2023/05/05 00:13:30;;;;;;;7.30;3.33;;;11.60;99.90;;;;;;5002376;28;20065;-80
2023/05/05 00:15:56;;;;;;;8.52;3.00;;;11.60;99.90;;;;;;5005139;28;20057;-74
2023/05/05 00:18:21;;;;;;;15.10;3.83;;;11.60;99.90;;;;;;5004712;28;20049;-73
2023/05/05 00:20:48;;;;;;;7.82;3.28;;;11.60;99.90;;;;;;5021126;28;20046;-75
2023/05/05 00:23:16;;;;;;;8.32;3.13;;;11.60;99.90;;;;;;5022820;28;20128;-74
2023/05/05 00:25:42;;;;;;;8.70;2.95;;;11.60;99.90;;;;;;5022914;28;20136;-74
2023/05/05 00:28:07;;;;;;;9.45;3.03;;;11.60;99.90;;;;;;5019842;28;20125;-80
2023/05/05 00:30:33;;;;;;;11.02;3.38;;;11.60;99.90;;;;;;5019616;28;20038;-73
2023/05/05 00:32:59;;;;;;;12.82;3.47;;;11.60;99.90;;;;;;5020484;28;20056;-73
2023/05/05 00:35:25;;;;;;;10.32;3.25;;;11.60;99.90;;;;;;5022620;28;20052;-74
2023/05/05 00:37:52;;;;;;;9.18;3.42;;;11.50;99.90;;;;;;5022142;28;20056;-74
2023/05/05 00:40:17;;;;;;;7.97;3.28;;;11.50;99.90;;;;;;5019719;28;20050;-74
2023/05/05 00:42:45;;;;;;;8.93;2.95;;;11.50;99.90;;;;;;5019434;28;20103;-76
2023/05/05 00:45:12;;;;;;;8.65;3.47;;;11.60;99.90;;;;;;5020607;28;20050;-74
2023/05/05 00:47:40;;;;;;;9.82;4.32;;;11.50;99.90;;;;;;5022552;28;20044;-73
2023/05/05 00:50:08;;;;;;;12.80;3.72;;;11.60;99.90;;;;;;5022458;28;20049;-73
2023/05/05 00:52:35;;;;;;;7.13;3.50;;;11.50;99.90;;;;;;4993525;28;20042;-74
2023/05/05 00:55:02;;;;;;;10.77;3.38;;;11.50;99.90;;;;;;5018828;28;20076;-74
2023/05/05 00:57:28;;;;;;;9.63;3.28;;;11.40;99.90;;;;;;5003136;28;20045;-74
2023/05/05 00:59:55;;;;;;;5.22;2.97;;;11.40;99.90;;;;;;5022028;28;20048;-75
2023/05/05 01:02:21;;;;;;;8.68;3.15;;;11.40;99.90;;;;;;5022258;28;20091;-73
2023/05/05 01:04:47;;;;;;;8.55;3.45;;;11.40;99.90;;;;;;5010853;28;20057;-74
2023/05/05 01:07:27;;;;;;;8.57;3.70;;;11.40;99.90;;;;;;5001095;28;20501;-73
2023/05/05 01:10:10;;;;;;;7.68;4.05;;;11.30;99.90;;;;;;5010574;28;20053;-74
2023/05/05 01:13:10;;;;;;;11.25;3.55;;;11.30;99.90;;;;;;5001399;28;20056;-74
2023/05/05 01:15:46;;;;;;;13.60;3.92;;;11.30;99.90;;;;;;5019691;28;20064;-74
2023/05/05 01:18:44;;;;;;;9.25;3.60;;;11.20;99.90;;;;;;5004626;28;20079;-75
2023/05/05 01:21:22;;;;;;;10.23;2.92;;;11.30;99.90;;;;;;4994441;28;20050;-76
2023/05/05 01:24:18;;;;;;;12.60;4.20;;;11.20;99.90;;;;;;5002148;28;20176;-73
2023/05/05 01:27:05;;;;;;;8.38;3.60;;;11.20;99.90;;;;;;5021798;28;20380;-74
2023/05/05 01:29:57;;;;;;;5.90;3.15;;;11.20;99.90;;;;;;5013611;28;20042;-72
2023/05/05 01:32:28;;;;;;;6.60;3.30;;;11.10;99.90;;;;;;4994140;28;20133;-74
2023/05/05 01:35:17;;;;;;;11.23;3.38;;;11.40;99.90;;;;;;5018998;28;20049;-75
2023/05/05 01:37:57;;;;;;;8.18;3.67;;;11.20;99.90;;;;;;5003895;28;20044;-74
2023/05/05 01:40:27;;;;;;;12.07;3.83;;;11.10;99.90;;;;;;5013292;28;20037;-74
2023/05/05 01:42:55;;;;;;;7.43;3.33;;;11.10;99.90;;;;;;5018056;28;20034;-73
2023/05/05 01:45:25;;;;;;;10.55;3.50;;;11.00;99.90;;;;;;5019509;28;20172;-77
2023/05/05 01:47:52;;;;;;;9.00;3.53;;;11.00;99.90;;;;;;5001194;28;20053;-80
2023/05/05 01:50:19;;;;;;;13.18;3.90;;;11.00;99.90;;;;;;5001462;28;20100;-76
2023/05/05 01:52:45;;;;;;;11.57;3.60;;;11.00;99.90;;;;;;5017789;28;20049;-75
2023/05/05 01:55:13;;;;;;;6.75;3.35;;;11.10;99.90;;;;;;5018289;28;20184;-74
2023/05/05 01:57:41;;;;;;;12.93;3.50;;;11.00;99.90;;;;;;5010181;28;20120;-73
2023/05/05 02:00:08;;;;;;;10.30;4.18;;;11.00;99.90;;;;;;5018780;28;20046;-74
2023/05/05 02:02:36;;;;;;;9.27;3.53;;;11.00;99.90;;;;;;5017830;28;20066;-73
2023/05/05 02:05:03;;;;;;;8.00;3.70;;;11.00;99.90;;;;;;5018280;28;20057;-73
2023/05/05 02:07:31;;;;;;;10.93;3.45;;;11.00;99.90;;;;;;5019022;28;20822;-74
2023/05/05 02:09:58;;;;;;;8.88;4.07;;;11.00;99.90;;;;;;5003018;28;20053;-75
2023/05/05 02:12:25;;;;;;;8.73;3.60;;;10.90;99.90;;;;;;5020104;28;20045;-74
2023/05/05 02:14:52;;;;;;;6.22;3.40;;;10.90;99.90;;;;;;5018616;28;20049;-74
2023/05/05 02:17:19;;;;;;;7.32;3.50;;;10.90;99.90;;;;;;5018046;28;20053;-81
2023/05/05 02:19:48;;;;;;;8.73;3.95;;;10.90;99.90;;;;;;5019499;28;20054;-80
2023/05/05 02:22:15;;;;;;;8.68;3.55;;;11.30;99.90;;;;;;5021279;28;20079;-75
2023/05/05 02:24:42;;;;;;;11.35;3.60;;;11.30;99.90;;;;;;5012491;28;20046;-76
2023/05/05 02:27:09;;;;;;;7.43;3.53;;;10.90;99.90;;;;;;5009264;28;20092;-74
2023/05/05 02:29:44;;;;;;;10.43;3.60;;;11.20;99.90;;;;;;5021207;28;20037;-75
2023/05/05 02:32:17;;;;;;;8.65;3.67;;;10.90;99.90;;;;;;5017863;28;20127;-77
2023/05/05 02:34:47;;;;;;;9.77;4.15;;;10.90;99.90;;;;;;5017979;28;20057;-74
2023/05/05 02:37:20;;;;;;;11.80;3.42;;;10.90;99.90;;;;;;5020520;28;20056;-73
2023/05/05 02:39:57;;;;;;;9.65;3.33;;;10.90;99.90;;;;;;5015249;28;20056;-74
2023/05/05 02:42:31;;;;;;;8.55;3.72;;;11.40;99.90;;;;;;5003479;28;20057;-74
2023/05/05 02:44:58;;;;;;;7.15;3.58;;;11.10;99.90;;;;;;5018064;28;20057;-76
2023/05/05 02:47:37;;;;;;;8.82;3.55;;;11.00;99.90;;;;;;5020303;28;20046;-74
2023/05/05 02:50:04;;;;;;;7.45;3.42;;;10.90;99.90;;;;;;5003073;28;20045;-75
2023/05/05 02:52:30;;;;;;;12.52;3.97;;;10.90;99.90;;;;;;5018065;28;20052;-74
2023/05/05 02:54:57;;;;;;;11.43;3.80;;;10.90;99.90;;;;;;5017709;28;20046;-74
2023/05/05 02:57:30;;;;;;;8.30;3.72;;;10.90;99.90;;;;;;5023221;28;20056;-75
2023/05/05 03:00:05;;;;;;;8.90;3.65;;;10.90;99.90;;;;;;5017741;28;20046;-74
2023/05/05 03:02:43;;;;;;;8.27;3.58;;;10.90;99.90;;;;;;5002705;28;20067;-74
2023/05/05 03:05:12;;;;;;;7.05;3.67;;;11.20;99.90;;;;;;5020977;28;20053;-76
2023/05/05 03:07:44;;;;;;;17.13;4.05;;;11.10;99.90;;;;;;5002971;28;20054;-74
2023/05/05 03:10:15;;;;;;;10.40;3.95;;;10.80;99.90;;;;;;5004506;28;20050;-73
2023/05/05 03:12:57;;;;;;;7.25;3.60;;;11.00;99.90;;;;;;5007592;28;20042;-78
2023/05/05 03:15:28;;;;;;;6.90;3.55;;;11.00;99.90;;;;;;4996662;28;20050;-74
2023/05/05 03:17:56;;;;;;;11.60;3.72;;;11.20;99.90;;;;;;5003947;28;20497;-73
2023/05/05 03:20:22;;;;;;;8.85;3.45;;;10.90;99.90;;;;;;5000825;28;20054;-73
2023/05/05 03:22:49;;;;;;;5.97;3.10;;;10.80;99.90;;;;;;5002649;28;20520;-73
2023/05/05 03:25:15;;;;;;;10.38;3.20;;;10.70;99.90;;;;;;5004273;28;20046;-73
2023/05/05 03:27:40;;;;;;;8.20;3.72;;;10.80;99.90;;;;;;5004443;28;20452;-75
2023/05/05 03:30:07;;;;;;;6.65;3.40;;;10.80;99.90;;;;;;5001472;28;20049;-74
2023/05/05 03:32:32;;;;;;;8.80;3.95;;;10.70;99.90;;;;;;5001249;28;20046;-74
2023/05/05 03:34:58;;;;;;;7.05;3.45;;;10.80;99.90;;;;;;5001813;28;20124;-73
2023/05/05 03:37:23;;;;;;;8.25;3.92;;;10.80;99.90;;;;;;5004152;28;20094;-73
2023/05/05 03:39:49;;;;;;;10.10;3.53;;;10.70;99.90;;;;;;4988423;28;20596;-74
2023/05/05 03:42:15;;;;;;;11.90;3.72;;;11.10;99.90;;;;;;4992720;28;20081;-74
2023/05/05 03:44:41;;;;;;;6.78;3.67;;;10.70;99.90;;;;;;4990841;28;20125;-73
2023/05/05 03:47:06;;;;;;;12.52;3.80;;;11.00;99.90;;;;;;5001114;28;20497;-74
2023/05/05 03:49:32;;;;;;;9.05;3.90;;;10.70;99.90;;;;;;5003086;28;20046;-73
2023/05/05 03:51:58;;;;;;;9.15;3.67;;;10.70;99.90;;;;;;5002232;28;20508;-73
2023/05/05 03:54:23;;;;;;;7.88;3.67;;;10.80;99.90;;;;;;4992978;28;20465;-73
2023/05/05 03:56:49;;;;;;;10.00;3.72;;;11.20;99.90;;;;;;4994368;28;20132;-74
2023/05/05 03:59:14;;;;;;;8.90;4.13;;;10.80;99.90;;;;;;4994477;28;20049;-75
2023/05/05 04:01:40;;;;;;;7.38;4.15;;;10.70;99.90;;;;;;4988539;28;20074;-74
2023/05/05 04:04:06;;;;;;;9.05;3.50;;;10.70;99.90;;;;;;5003772;28;20121;-73
2023/05/05 04:06:31;;;;;;;7.40;3.92;;;10.60;99.90;;;;;;5011152;28;20564;-74
2023/05/05 04:08:57;;;;;;;11.35;4.47;;;10.70;99.90;;;;;;5023101;28;20115;-73
2023/05/05 04:11:22;;;;;;;8.27;4.25;;;10.70;99.90;;;;;;5017676;28;20057;-73
2023/05/05 04:13:48;;;;;;;12.95;4.35;;;10.60;99.90;;;;;;5021875;28;20038;-73
2023/05/05 04:16:15;;;;;;;13.45;4.35;;;10.60;99.90;;;;;;5006462;28;20660;-74
2023/05/05 04:18:40;;;;;;;13.40;4.72;;;11.00;99.90;;;;;;5022459;28;20049;-77
2023/05/05 04:21:06;;;;;;;14.05;4.70;;;10.60;99.90;;;;;;5020177;28;20123;-79
2023/05/05 04:23:32;;;;;;;12.35;4.35;;;10.60;99.90;;;;;;5019878;28;20509;-75
2023/05/05 04:25:57;;;;;;;11.13;5.22;;;10.70;99.90;;;;;;5020454;28;20056;-79
2023/05/05 04:28:23;;;;;;;13.35;5.25;;;10.50;99.90;;;;;;5019873;28;20046;-77
2023/05/05 04:30:48;;;;;;;11.15;5.13;;;10.50;99.90;;;;;;5019605;28;20037;-74
2023/05/05 04:33:14;;;;;;;13.60;6.15;;;10.70;99.90;;;;;;5022228;28;20053;-72
2023/05/05 04:35:40;;;;;;;15.13;5.70;;;10.60;99.90;;;;;;5024237;28;20125;-78
2023/05/05 04:38:05;;;;;;;11.52;4.78;;;10.60;99.90;;;;;;5020281;28;20081;-76
2023/05/05 04:40:31;;;;;;;12.32;5.25;;;10.40;99.90;;;;;;5019678;28;20671;-80
2023/05/05 04:42:57;;;;;;;12.00;5.22;;;10.30;99.90;;;;;;5020093;28;20459;-76
2023/05/05 04:45:22;;;;;;;9.27;5.40;;;10.30;99.90;;;;;;5023070;28;20572;-73
2023/05/05 04:47:48;;;;;;;11.93;5.38;;;10.50;99.90;;;;;;5022983;28;20046;-73
2023/05/05 04:50:14;;;;;;;9.32;5.32;;;10.30;99.90;;;;;;5004481;28;20182;-72
2023/05/05 04:52:40;;;;;;;7.45;5.00;;;10.30;99.90;;;;;;5002796;28;20045;-74
2023/05/05 04:55:07;;;;;;;9.50;5.03;;;10.30;99.90;;;;;;5002070;28;20049;-74
2023/05/05 04:57:33;;;;;;;13.85;5.50;;;10.30;99.90;;;;;;5022631;28;20045;-79
2023/05/05 04:59:59;;;;;;;13.88;5.93;;;10.50;99.90;;;;;;5023086;28;20099;-77
2023/05/05 05:02:25;;;;;;;11.23;5.47;;;10.20;99.90;;;;;;5021725;28;20037;-73
2023/05/05 05:04:51;;;;;;;10.00;5.32;;;10.50;99.90;;;;;;5001813;28;20078;-72
2023/05/05 05:07:17;;;;;;;9.15;5.35;;;10.10;99.90;;;;;;5017331;28;20073;-79
2023/05/05 05:09:42;;;;;;;11.68;6.13;;;10.10;99.90;;;;;;5004270;28;20057;-77
2023/05/05 05:12:08;;;;;;;13.10;5.80;;;10.10;99.90;;;;;;5017800;28;20091;-72
2023/05/05 05:14:37;;;;;;;10.30;5.22;;;10.40;99.90;;;;;;5020765;28;20095;-73
2023/05/05 05:17:04;;;;;;;9.30;5.72;;;10.00;99.90;;;;;;5001596;28;20488;-72
2023/05/05 05:19:29;;;;;;;12.85;5.43;;;10.10;99.90;;;;;;5019510;28;20058;-73
2023/05/05 05:21:55;;;;;;;11.75;5.60;;;10.10;99.90;;;;;;5022322;28;20051;-73
2023/05/05 05:24:20;;;;;;;8.32;5.60;;;10.10;99.90;;;;;;5022429;28;20586;-73
2023/05/05 05:26:46;;;;;;;11.18;5.80;;;10.00;99.90;;;;;;5021373;28;20041;-79
2023/05/05 05:29:12;;;;;;;12.73;5.22;;;10.10;99.90;;;;;;5016618;28;20041;-76
2023/05/05 05:31:38;;;;;;;8.45;5.35;;;10.10;99.90;;;;;;5022965;28;20034;-76
2023/05/05 05:34:04;;;;;;;13.70;5.72;;;10.10;99.90;;;;;;4996444;28;20068;-73
2023/05/05 05:36:30;;;;;;;11.82;5.72;;;10.20;99.90;;;;;;5021379;28;20037;-75
2023/05/05 05:38:56;;;;;;;10.07;5.50;;;10.20;99.90;;;;;;5021283;28;20076;-80
2023/05/05 05:41:22;;;;;;;8.05;5.28;;;10.30;99.90;;;;;;5015870;28;20476;-73
2023/05/05 05:43:47;;;;;;;11.23;5.95;;;10.30;99.90;;;;;;5004004;28;20041;-72
2023/05/05 05:46:13;;;;;;;10.07;5.75;;;10.30;99.90;;;;;;4995379;28;20062;-72
2023/05/05 05:48:39;;;;;;;11.57;5.15;;;10.60;99.90;;;;;;5020823;28;20037;-73
2023/05/05 05:51:05;;;;;;;12.05;5.47;;;10.40;99.90;;;;;;5018411;28;20046;-73
2023/05/05 05:53:31;;;;;;;10.10;5.78;;;10.60;99.90;;;;;;4995125;28;20042;-74
2023/05/05 05:55:56;;;;;;;10.52;5.75;;;10.50;99.90;;;;;;5018730;28;20489;-72
2023/05/05 05:58:22;;;;;;;12.68;6.00;;;10.50;99.90;;;;;;5002534;28;20046;-73
2023/05/05 06:00:48;;;;;;;10.77;5.65;;;10.60;99.90;;;;;;5000444;28;20555;-73
2023/05/05 06:03:13;;;;;;;12.55;5.20;;;11.00;99.90;;;;;;5000944;28;20046;-76
2023/05/05 06:05:39;;;;;;;16.33;6.57;;;10.60;99.90;;;;;;5021422;28;20060;-73
2023/05/05 06:08:05;;;;;;;9.45;5.65;;;10.90;99.90;;;;;;5021384;28;20459;-72
2023/05/05 06:10:30;;;;;;;8.15;5.18;;;10.70;99.90;;;;;;5001594;28;20222;-73
2023/05/05 06:12:56;;;;;;;10.60;6.25;;;10.90;99.90;;;;;;5017857;28;20049;-72
2023/05/05 06:15:22;;;;;;;11.90;5.60;;;10.80;99.90;;;;;;5018316;28;20497;-73
2023/05/05 06:17:47;;;;;;;11.82;6.05;;;10.90;99.90;;;;;;5020456;28;20053;-73
2023/05/05 06:20:13;;;;;;;10.63;5.72;;;10.90;99.90;;;;;;5003768;28;20103;-72
2023/05/05 06:22:38;;;;;;;10.85;5.75;;;11.00;99.90;;;;;;4998264;28;20100;-72
2023/05/05 06:25:04;;;;;;;11.32;5.95;;;11.00;99.90;;;;;;5003332;28;20042;-71
2023/05/05 06:27:30;;;;;;;10.02;5.93;;;11.10;99.90;;;;;;5003440;28;20057;-75
2023/05/05 06:29:56;;;;;;;11.18;5.95;;;11.10;99.90;;;;;;5019066;28;20515;-71
2023/05/05 06:32:21;;;;;;;10.98;6.03;;;11.20;99.90;;;;;;5000134;28;20088;-72
2023/05/05 06:34:47;;;;;;;12.13;5.88;;;11.20;99.90;;;;;;5017842;28;20052;-72
2023/05/05 06:37:13;;;;;;;12.23;6.32;;;11.30;99.90;;;;;;5011563;28;20050;-71
2023/05/05 06:39:39;;;;;;;9.40;6.28;;;11.30;99.90;;;;;;5021403;28;20057;-72
2023/05/05 06:42:04;;;;;;;10.55;6.15;;;11.50;99.90;;;;;;5023608;28;20119;-72
2023/05/05 06:44:30;;;;;;;12.48;6.25;;;11.30;99.90;;;;;;5002305;28;20124;-72
2023/05/05 06:46:56;;;;;;;11.35;5.82;;;11.40;99.90;;;;;;5007224;28;20045;-72
2023/05/05 06:49:21;;;;;;;14.27;6.07;;;11.40;99.90;;;;;;5021946;28;20060;-72
2023/05/05 06:51:47;;;;;;;12.23;6.35;;;11.60;99.90;;;;;;5021930;28;20498;-72
2023/05/05 06:54:13;;;;;;;15.90;6.28;;;11.60;99.90;;;;;;5004397;28;20046;-72
2023/05/05 06:56:38;;;;;;;14.23;6.40;;;11.70;99.90;;;;;;5024590;28;20124;-73
2023/05/05 06:59:04;;;;;;;11.38;6.60;;;11.70;99.90;;;;;;5004829;28;20132;-74
2023/05/05 07:01:29;;;;;;;10.68;6.30;;;11.80;99.90;;;;;;4998069;28;20042;-73
2023/05/05 07:03:55;;;;;;;11.57;6.88;;;11.90;99.90;;;;;;5024765;28;20037;-73
2023/05/05 07:06:21;;;;;;;11.48;6.35;;;12.10;99.90;;;;;;5023980;28;20060;-74
2023/05/05 07:08:47;;;;;;;10.77;6.03;;;12.00;99.90;;;;;;5021154;28;20397;-73
2023/05/05 07:11:12;;;;;;;15.18;6.82;;;12.10;99.90;;;;;;5003528;28;20173;-72
2023/05/05 07:13:38;;;;;;;14.63;6.85;;;12.20;99.90;;;;;;5003966;28;20319;-73
2023/05/05 07:16:04;;;;;;;18.65;6.65;;;12.20;99.90;;;;;;5022233;28;20057;-74
2023/05/05 07:18:30;;;;;;;11.60;6.28;;;12.30;99.90;;;;;;5021303;28;20113;-74
2023/05/05 07:20:55;;;;;;;14.50;7.25;;;12.50;99.90;;;;;;5020599;28;20633;-74
2023/05/05 07:23:21;;;;;;;10.15;6.82;;;12.60;99.90;;;;;;5003252;28;20053;-73
2023/05/05 07:25:47;;;;;;;11.00;6.85;;;12.80;99.90;;;;;;5022106;28;20057;-74
2023/05/05 07:28:12;;;;;;;13.25;7.90;;;12.90;99.90;;;;;;5024275;28;20045;-78
2023/05/05 07:30:38;;;;;;;9.93;7.10;;;13.00;99.90;;;;;;5024001;28;20203;-72
2023/05/05 07:33:04;;;;;;;11.45;7.20;;;13.20;99.90;;;;;;5003552;28;20482;-80
2023/05/05 07:35:29;;;;;;;14.85;7.30;;;13.30;99.90;;;;;;5002991;28;20456;-77
2023/05/05 07:37:55;;;;;;;10.48;7.60;;;13.40;99.90;;;;;;5021170;28;20042;-75
2023/05/05 07:40:21;;;;;;;11.43;7.22;;;13.60;99.90;;;;;;5005742;28;20059;-76
2023/05/05 07:42:46;;;;;;;12.00;7.53;;;13.80;99.90;;;;;;5003473;28;20397;-73
2023/05/05 07:45:12;;;;;;;13.68;7.03;;;14.00;99.90;;;;;;5022530;28;20481;-74
2023/05/05 07:47:39;;;;;;;10.10;7.32;;;14.20;99.90;;;;;;5022715;28;20049;-78
2023/05/05 07:50:05;;;;;;;10.95;6.95;;;14.60;99.90;;;;;;5022949;28;20124;-75
2023/05/05 07:52:31;;;;;;;11.18;7.88;;;14.80;99.90;;;;;;5002582;28;20104;-75
2023/05/05 07:54:57;;;;;;;12.75;7.43;;;15.10;99.90;;;;;;5020228;28;20053;-78
2023/05/05 07:57:22;;;;;;;12.20;7.75;;;15.30;99.90;;;;;;5021788;28;20046;-75
2023/05/05 07:59:48;;;;;;;13.35;8.20;;;15.40;99.90;;;;;;5005603;28;20049;-76
2023/05/05 08:02:13;;;;;;;15.07;8.25;;;15.30;99.90;;;;;;5005840;28;20056;-75
2023/05/05 08:04:40;;;;;;;16.35;8.43;;;15.50;99.90;;;;;;5016889;28;20046;-75
2023/05/05 08:07:07;;;;;;;11.93;8.15;;;15.80;99.90;;;;;;5004303;28;20405;-76
2023/05/05 08:09:34;;;;;;;13.82;8.00;;;16.10;99.90;;;;;;5021863;28;20050;-76
2023/05/05 08:12:01;;;;;;;13.02;8.48;;;16.30;99.90;;;;;;5023562;28;20053;-76
2023/05/05 08:14:26;;;;;;;12.18;7.90;;;16.60;99.90;;;;;;5023618;28;20598;-76
2023/05/05 08:16:52;;;;;;;14.27;7.80;;;16.80;99.90;;;;;;4995145;28;20042;-76
2023/05/05 08:19:18;;;;;;;16.48;8.45;;;17.00;99.90;;;;;;5003015;28;20608;-76
2023/05/05 08:21:43;;;;;;;16.40;9.25;;;17.10;99.90;;;;;;5004083;28;20046;-76
2023/05/05 08:24:09;;;;;;;11.77;8.65;;;17.40;99.90;;;;;;5023347;28;20072;-76
2023/05/05 08:26:35;;;;;;;13.50;8.25;;;17.60;99.90;;;;;;5023223;28;20107;-76
2023/05/05 08:29:01;;;;;;;15.43;8.60;;;17.80;99.90;;;;;;5002970;28;20050;-79
2023/05/05 08:31:28;;;;;;;13.02;8.90;;;18.00;99.90;;;;;;5019519;28;20460;-80
2023/05/05 08:37:05;;;;;;;13.32;9.05;;;18.40;99.90;;;;;;5886247;23;20046;-73
2023/05/05 08:39:30;;;;;;;12.50;9.23;;;18.70;99.90;;;;;;4960528;28;20082;-70
2023/05/05 08:41:56;;;;;;;15.68;9.80;;;18.60;99.90;;;;;;4946625;28;20498;-72
2023/05/05 08:44:22;;;;;;;17.75;9.57;;;18.50;99.90;;;;;;4944031;29;20510;-75
2023/05/05 08:46:48;;;;;;;16.38;9.00;;;18.60;99.90;;;;;;4961497;28;20075;-78
2023/05/05 08:49:16;;;;;;;15.88;10.10;;;18.80;99.90;;;;;;4963218;28;20521;-71
2023/05/05 08:51:44;;;;;;;17.08;10.52;;;19.00;99.90;;;;;;4947290;28;20489;-81
2023/05/05 08:54:16;;;;;;;11.82;8.93;;;19.20;99.90;;;;;;4963975;28;20126;-79
2023/05/05 08:56:45;;;;;;;12.90;9.35;;;19.50;99.90;;;;;;4943962;29;20062;-85
2023/05/05 08:59:13;;;;;;;15.70;9.60;;;19.60;99.90;;;;;;4969115;28;20621;-72
2023/05/05 09:01:41;;;;;;;12.77;9.98;;;19.90;99.90;;;;;;4961570;28;20039;-82
2023/05/05 09:04:08;;;;;;;15.85;9.40;;;20.00;99.90;;;;;;4943975;29;20482;-85
2023/05/05 09:06:34;;;;;;;13.18;9.90;;;20.20;99.90;;;;;;4963558;28;20043;-82
2023/05/05 09:09:00;;;;;;;20.08;9.43;;;20.30;99.90;;;;;;4947146;28;20577;-81
2023/05/05 09:11:26;;;;;;;15.05;9.82;;;20.40;99.90;;;;;;4938695;28;20126;-84
2023/05/05 09:13:52;;;;;;;15.77;10.13;;;20.30;99.90;;;;;;4946486;28;20061;-71
2023/05/05 09:16:18;;;;;;;13.15;9.57;;;20.40;99.90;;;;;;4964702;28;20047;-81
2023/05/05 09:18:44;;;;;;;13.13;9.10;;;20.50;99.90;;;;;;4963030;28;20047;-72
2023/05/05 09:21:20;;;;;;;14.68;9.48;;;20.50;99.90;;;;;;4946473;28;20091;-72
2023/05/05 09:24:11;;;;;;;16.20;10.38;;;20.60;99.90;;;;;;4962394;28;20049;-72
2023/05/05 09:26:40;;;;;;;13.50;9.52;;;20.70;99.90;;;;;;4960789;28;20442;-75
2023/05/05 09:29:06;;;;;;;14.27;10.48;;;20.90;99.90;;;;;;4943758;29;20043;-73
2023/05/05 09:31:32;;;;;;;16.17;10.95;;;20.80;99.90;;;;;;4960718;28;20458;-72
2023/05/05 09:33:59;;;;;;;15.68;10.48;;;20.70;99.90;;;;;;4958557;28;20062;-71
2023/05/05 09:36:48;;;;;;;19.42;11.68;;;20.70;99.90;;;;;;4962130;28;20047;-73
2023/05/05 09:39:18;;;;;;;19.25;11.82;;;20.70;99.90;;;;;;4963334;28;20054;-71
2023/05/05 09:41:44;;;;;;;16.80;11.23;;;20.90;99.90;;;;;;4946189;28;20058;-72
2023/05/05 09:44:14;;;;;;;15.13;11.77;;;21.20;99.90;;;;;;4944385;28;20050;-72
2023/05/05 09:46:51;;;;;;;15.93;11.95;;;21.20;99.90;;;;;;4943494;29;20511;-71
2023/05/05 09:49:22;;;;;;;18.70;13.00;;;21.50;99.90;;;;;;4945126;28;20363;-71
2023/05/05 09:51:48;;;;;;;22.20;13.68;;;21.50;99.90;;;;;;4963589;28;20042;-72
2023/05/05 09:54:24;;;;;;;20.65;13.63;;;21.50;99.90;;;;;;4962297;28;20129;-72
2023/05/05 09:56:51;;;;;;;22.08;14.68;;;21.50;99.90;;;;;;4960546;28;20474;-73
2023/05/05 09:59:17;;;;;;;18.15;14.02;;;21.30;99.90;;;;;;4961093;28;20146;-71
2023/05/05 10:01:43;;;;;;;19.30;15.32;;;21.20;99.90;;;;;;4963179;28;20054;-72
2023/05/05 10:04:28;;;;;;;17.90;14.52;;;21.30;99.90;;;;;;4964288;28;20051;-71
2023/05/05 10:06:55;;;;;;;20.92;15.75;;;21.50;99.90;;;;;;4954557;28;20035;-73
2023/05/05 10:09:25;;;;;;;21.40;15.27;;;21.40;99.90;;;;;;4960902;28;20054;-72
2023/05/05 10:11:54;;;;;;;21.15;15.65;;;21.60;99.90;;;;;;4961151;28;20082;-71
2023/05/05 10:14:23;;;;;;;21.77;14.93;;;21.80;99.90;;;;;;4946062;28;20394;-71
2023/05/05 10:16:50;;;;;;;20.48;14.27;;;21.50;99.90;;;;;;4943651;28;20047;-73
2023/05/05 10:19:18;;;;;;;22.45;15.25;;;21.50;99.90;;;;;;4942327;29;20051;-72
2023/05/05 10:22:07;;;;;;;22.15;16.67;;;21.50;99.90;;;;;;4960075;28;20055;-71
2023/05/05 10:24:32;;;;;;;22.05;15.18;;;21.60;99.90;;;;;;4942883;29;20067;-70
2023/05/05 10:27:01;;;;;;;25.00;15.77;;;21.60;99.90;;;;;;4962288;28;20058;-73
2023/05/05 10:29:42;;;;;;;24.40;15.50;;;21.70;99.90;;;;;;4945397;28;20524;-72
2023/05/05 10:32:33;;;;;;;18.88;15.23;;;21.70;99.90;;;;;;4932026;28;20781;-72
2023/05/05 10:35:01;;;;;;;21.23;16.48;;;21.60;99.90;;;;;;4942538;28;20162;-72
2023/05/05 10:37:28;;;;;;;20.42;16.02;;;21.70;99.90;;;;;;4962751;28;20066;-71
2023/05/05 10:39:57;;;;;;;23.08;15.35;;;21.70;99.90;;;;;;4945959;28;20054;-71
2023/05/05 10:42:23;;;;;;;22.95;12.85;;;21.80;99.90;;;;;;4960306;28;20091;-72
2023/05/05 10:44:52;;;;;;;16.70;13.27;;;21.50;99.90;;;;;;4960052;28;20406;-70
2023/05/05 10:47:19;;;;;;;18.08;12.93;;;21.40;99.90;;;;;;4944520;28;20055;-72
2023/05/05 10:50:01;;;;;;;14.18;11.05;;;21.60;99.90;;;;;;4963175;28;20042;-75
2023/05/05 10:52:57;;;;;;;13.60;9.90;;;21.70;99.90;;;;;;4934474;28;20051;-72
2023/05/05 10:55:47;;;;;;;14.38;10.68;;;21.70;99.90;;;;;;4944334;28;20051;-72
2023/05/05 10:58:30;;;;;;;17.02;11.57;;;21.60;99.90;;;;;;4962509;28;20051;-72
2023/05/05 11:00:56;;;;;;;14.43;10.82;;;21.40;99.90;;;;;;4960388;28;20101;-73
2023/05/05 11:03:22;;;;;;;14.90;10.68;;;21.50;99.90;;;;;;4942467;29;20055;-73
2023/05/05 11:06:06;;;;;;;16.98;11.43;;;21.40;99.90;;;;;;4959920;28;20525;-72
2023/05/05 11:08:42;;;;;;;13.55;10.57;;;21.30;99.90;;;;;;4961497;28;20047;-74
2023/05/05 11:11:11;;;;;;;11.80;8.88;;;21.40;99.90;;;;;;4962713;28;20035;-73
2023/05/05 11:13:38;;;;;;;15.98;10.73;;;21.20;99.90;;;;;;4941287;28;20506;-74
2023/05/05 11:16:25;;;;;;;15.07;10.68;;;21.10;99.90;;;;;;4937808;28;20051;-70
2023/05/05 11:18:50;;;;;;;15.30;9.65;;;21.50;99.90;;;;;;4960288;28;20051;-72
2023/05/05 11:21:17;;;;;;;15.10;8.85;;;21.60;99.90;;;;;;4960057;28;20138;-77
2023/05/05 11:23:50;;;;;;;11.13;8.00;;;21.40;99.90;;;;;;4963083;28;20066;-72
2023/05/05 11:26:18;;;;;;;13.65;9.68;;;21.70;99.90;;;;;;4966595;28;20085;-71
2023/05/05 11:28:58;;;;;;;9.93;7.00;;;21.80;99.90;;;;;;4943927;28;20403;-70
2023/05/05 11:31:24;;;;;;;9.73;6.35;;;21.90;99.90;;;;;;4963346;28;20046;-72
2023/05/05 11:33:50;;;;;;;13.30;9.02;;;21.90;99.90;;;;;;4965714;28;20051;-71
2023/05/05 11:36:17;;;;;;;13.65;9.27;;;21.80;99.90;;;;;;4958951;28;20051;-72
2023/05/05 11:39:15;;;;;;;12.82;9.63;;;21.50;99.90;;;;;;4962354;28;20102;-71
2023/05/05 11:42:16;;;;;;;14.55;8.85;;;21.50;99.90;;;;;;4917225;29;20107;-73
2023/05/05 11:44:42;;;;;;;13.48;7.32;;;21.50;99.90;;;;;;4900488;29;20060;-71
2023/05/05 11:47:11;;;;;;;10.27;7.10;;;21.30;99.90;;;;;;4922788;29;20062;-72
2023/05/05 11:49:37;;;;;;;9.15;6.28;;;21.30;99.90;;;;;;4925031;29;20475;-71
2023/05/05 11:52:04;;;;;;;8.45;6.07;;;21.30;99.90;;;;;;4925161;29;20090;-71
2023/05/05 11:54:31;;;;;;;12.25;6.45;;;21.30;99.90;;;;;;4921602;29;20123;-72
2023/05/05 11:57:00;;;;;;;11.45;7.07;;;21.30;99.90;;;;;;4922043;29;20067;-72
2023/05/05 11:59:31;;;;;;;14.18;6.95;;;21.30;99.90;;;;;;4905783;29;20044;-72
2023/05/05 12:01:58;;;;;;;12.60;7.00;;;21.30;99.90;;;;;;4921281;29;20044;-75
2023/05/05 12:04:23;;;;;;;11.60;5.85;;;21.30;99.90;;;;;;4922387;29;20139;-71
2023/05/05 12:06:49;;;;;;;9.02;5.20;;;21.30;99.90;;;;;;4922630;29;20126;-69
2023/05/05 12:09:19;;;;;;;10.88;5.35;;;21.20;99.90;;;;;;4913137;29;20040;-70
2023/05/05 12:11:48;;;;;;;8.02;4.30;;;21.20;99.90;;;;;;4913134;29;20052;-72
2023/05/05 12:14:13;;;;;;;10.55;6.45;;;21.20;99.90;;;;;;4920855;29;20123;-73
2023/05/05 12:16:39;;;;;;;15.35;6.28;;;21.20;99.90;;;;;;4916464;28;20063;-71
2023/05/05 12:19:06;;;;;;;11.55;6.00;;;21.00;99.90;;;;;;4965062;28;20121;-72
2023/05/05 12:21:33;;;;;;;10.88;6.55;;;20.90;99.90;;;;;;4961988;28;20062;-71
2023/05/05 12:23:59;;;;;;;11.15;6.18;;;21.10;99.90;;;;;;4964380;28;20053;-71
2023/05/05 12:26:34;;;;;;;10.93;6.07;;;20.90;99.90;;;;;;4964972;28;20409;-72
2023/05/05 12:29:00;;;;;;;11.25;7.20;;;20.90;99.90;;;;;;4928633;28;20517;-72
2023/05/05 12:31:40;;;;;;;9.95;6.85;;;20.80;99.90;;;;;;4943652;29;20039;-76
2023/05/05 12:34:10;;;;;;;11.93;7.13;;;20.60;99.90;;;;;;4963599;28;20494;-74
2023/05/05 12:36:36;;;;;;;10.93;6.25;;;20.60;99.90;;;;;;4964558;28;20054;-79
2023/05/05 12:39:06;;;;;;;11.27;6.88;;;20.40;99.90;;;;;;4961915;28;20055;-77
2023/05/05 12:41:33;;;;;;;10.20;5.65;;;20.30;99.90;;;;;;4943898;29;20051;-84
2023/05/05 12:44:00;;;;;;;9.43;5.38;;;20.20;99.90;;;;;;4944268;28;20600;-72
2023/05/05 12:46:28;;;;;;;10.40;5.68;;;20.10;99.90;;;;;;4964304;28;20053;-79
2023/05/05 12:49:03;;;;;;;10.02;5.45;;;20.10;99.90;;;;;;4963765;28;20047;-78